Wilson Algeciras — 9HA2471 — position and weather

sailwx.info

Track history (hours):
 
Tides and Currents Weather Stations Pressure Air Temp Water Temp Dewpoint Dewpoint Depression Visibility Wind Speed Wind Dir Waves Ship Positions

Wilson Algeciras

Last reported at 2014-Oct-01 21:08 UTC. Time now 2014-Oct-02 08:31 UTC.
Position N 53°24' E 004°35'.

Length 88 m; draft 5.2 m.

Type: Cargo ship. MMSI: 248689000.

Date/timePositionNaut miles runAvg speedWind from/ knotsBaromVisibWave heightAir tempDewpointWater temp
2014-Oct-01 21:08N 53°24' E 004°35'6 7.9
2014-Oct-01 20:22N 53°29' E 004°42'7 8.9
2014-Oct-01 19:33N 53°32' E 004°53'10 9.8
2014-Oct-01 18:33N 53°35' E 005°08'1010.2
2014-Oct-01 17:33N 53°38' E 005°24'1010.1
2014-Oct-01 16:33N 53°42' E 005°40'10 9.6
2014-Oct-01 15:32N 53°45' E 005°56'61 8.7
2014-Oct-01 08:33N 54°01' E 007°36'1010.1
2014-Oct-01 07:33N 54°02' E 007°53'9 8.6
2014-Oct-01 06:33N 54°01' E 008°08'1111.3
2014-Oct-01 05:34N 53°59' E 008°27'9 9.4
2014-Oct-01 04:34N 53°55' E 008°41'7 7.3
2014-Oct-01 03:33N 53°50' E 008°51'7 7.0
2014-Oct-01 02:33N 53°52' E 009°02'4 4.1
2014-Oct-01 01:33N 53°54' E 009°09'2 1.6
2014-Oct-01 00:33N 53°55' E 009°11'0 0.1
2014-Sep-30 23:25N 53°55' E 009°11'1 0.8
2014-Sep-30 22:33N 53°55' E 009°12'8 7.9
2014-Sep-30 21:30N 54°03' E 009°18'9 6.9
2014-Sep-30 20:09N 54°11' E 009°27'5 8.0
2014-Sep-30 19:34N 54°12' E 009°34'8 7.6
2014-Sep-30 18:33N 54°18' E 009°43'3 2.6
2014-Sep-30 17:33N 54°21' E 009°45'7 6.6
2014-Sep-30 16:34N 54°20' E 009°56'5 5.0
2014-Sep-30 15:33N 54°22' E 010°05'2 2.4
2014-Sep-30 14:33N 54°22' E 010°09'6 6.5
2014-Sep-30 13:34N 54°27' E 010°15'9 8.8
2014-Sep-30 12:33N 54°33' E 010°27'9 9.4
2014-Sep-30 11:33N 54°37' E 010°41'87 6.5
2014-Sep-29 22:11N 55°55' E 011°50'5 8.5
2014-Sep-29 21:34N 55°57' E 011°59'1 1.3
2014-Sep-29 20:32N 55°58' E 012°01'0 0.0
2014-Sep-29 19:32N 55°58' E 012°01'0 0.0
2014-Sep-29 18:05N 55°58' E 012°01'0 0.0
2014-Sep-29 17:29N 55°58' E 012°01'0 0.0
2014-Sep-29 16:32N 55°58' E 012°01'0 0.0
2014-Sep-29 15:32N 55°58' E 012°01'0 0.0
2014-Sep-29 14:32N 55°58' E 012°01'0 0.0
2014-Sep-29 13:26N 55°58' E 012°01'0 0.0
2014-Sep-29 12:29N 55°58' E 012°01'0 0.0
2014-Sep-29 11:29N 55°58' E 012°01'0 0.0
2014-Sep-29 10:17N 55°58' E 012°01'0 0.0
2014-Sep-29 09:32N 55°58' E 012°01'0 0.0
2014-Sep-29 08:32N 55°58' E 012°01'0 0.0
2014-Sep-29 07:32N 55°58' E 012°01'0 0.0
2014-Sep-29 06:32N 55°58' E 012°01'0 0.0
2014-Sep-29 05:26N 55°58' E 012°01'0 0.0
2014-Sep-29 04:26N 55°58' E 012°01'0 0.0
2014-Sep-29 03:29N 55°58' E 012°01'0 0.0
2014-Sep-29 02:29N 55°58' E 012°01'0 0.0
2014-Sep-29 01:29N 55°58' E 012°01'0 0.0
2014-Sep-29 00:32N 55°58' E 012°01'0 0.0
2014-Sep-28 23:32N 55°58' E 012°01'0 0.0
2014-Sep-28 22:32N 55°58' E 012°01'0 0.0
2014-Sep-28 21:29N 55°58' E 012°01'0 0.0
2014-Sep-28 20:29N 55°58' E 012°01'0 0.0
2014-Sep-28 19:32N 55°58' E 012°01'0 0.0
2014-Sep-28 18:32N 55°58' E 012°01'0 0.0
2014-Sep-28 17:32N 55°58' E 012°01'0 0.0
2014-Sep-28 16:29N 55°58' E 012°01'0 0.0
2014-Sep-28 15:29N 55°58' E 012°01'0 0.0
2014-Sep-28 14:29N 55°58' E 012°01'0 0.0
2014-Sep-28 13:29N 55°58' E 012°01'0 0.0
2014-Sep-28 12:29N 55°58' E 012°01'0 0.0
2014-Sep-28 11:23N 55°58' E 012°01'0 0.0
2014-Sep-28 10:29N 55°58' E 012°01'0 0.0
2014-Sep-28 09:26N 55°58' E 012°01'0 0.0
2014-Sep-28 08:26N 55°58' E 012°01'0 0.0
2014-Sep-28 07:32N 55°58' E 012°01'0 0.0
2014-Sep-28 06:23N 55°58' E 012°01'0 0.0
2014-Sep-28 05:32N 55°58' E 012°01'0 0.0
2014-Sep-28 04:32N 55°58' E 012°01'0 0.0
2014-Sep-28 03:26N 55°58' E 012°01'0 0.0
2014-Sep-28 02:20N 55°58' E 012°01'0 0.0
2014-Sep-27 23:08N 55°58' E 012°01'0 0.0
2014-Sep-27 22:26N 55°58' E 012°01'0 0.0
2014-Sep-27 19:20N 55°58' E 012°01'0 0.0
2014-Sep-27 18:32N 55°58' E 012°01'0 0.0
2014-Sep-27 16:29N 55°58' E 012°01'0 0.0
2014-Sep-27 15:23N 55°58' E 012°01'0 0.0
2014-Sep-27 14:32N 55°58' E 012°01'0 0.0
2014-Sep-27 12:23N 55°58' E 012°01'0 0.0
2014-Sep-27 11:23N 55°58' E 012°01'0 0.0
2014-Sep-27 10:29N 55°58' E 012°01'0 0.0
2014-Sep-27 09:29N 55°58' E 012°01'0 0.0
2014-Sep-27 08:29N 55°58' E 012°01'0 0.0
2014-Sep-27 07:29N 55°58' E 012°01'0 0.0
2014-Sep-27 06:32N 55°58' E 012°01'0 0.0
2014-Sep-27 05:32N 55°58' E 012°01'0 0.0
2014-Sep-27 04:32N 55°58' E 012°01'0 0.0
2014-Sep-27 03:26N 55°58' E 012°01'0 0.0
2014-Sep-27 02:29N 55°58' E 012°01'0 0.0
2014-Sep-27 01:29N 55°58' E 012°01'0 0.0
2014-Sep-27 00:32N 55°58' E 012°01'4 4.6
2014-Sep-26 23:33N 55°56' E 011°53'6 5.7
2014-Sep-26 22:33N 56°01' E 011°49'91 1.8
2014-Sep-24 19:23N 54°37' E 010°46'8 9.7
2014-Sep-24 18:33N 54°33' E 010°34'10 9.7
2014-Sep-24 17:33N 54°29' E 010°19'7 6.9
2014-Sep-24 16:33N 54°24' E 010°12'3 3.1
2014-Sep-24 15:33N 54°22' E 010°07'8 7.9
2014-Sep-24 14:33N 54°21' E 009°54'8 7.4
2014-Sep-24 13:31N 54°18' E 009°42'29 7.1
2014-Sep-24 09:23N 53°55' E 009°11'3 3.8
2014-Sep-24 08:31N 53°53' E 009°06'5 5.3
2014-Sep-24 07:33N 53°51' E 008°58'7 6.6
2014-Sep-24 06:34N 53°50' E 008°47'6 6.3
2014-Sep-24 05:33N 53°55' E 008°40'7 6.6
2014-Sep-24 04:33N 53°58' E 008°30'7 7.4
2014-Sep-24 03:33N 53°60' E 008°18'67 9.3
2014-Sep-23 20:22N 53°45' E 006°27'810.4
2014-Sep-23 19:33N 53°43' E 006°13'1010.4
2014-Sep-23 18:33N 53°40' E 005°57'1010.4
2014-Sep-23 17:33N 53°36' E 005°40'1010.4
2014-Sep-23 16:34N 53°33' E 005°23'1010.3
2014-Sep-23 15:33N 53°30' E 005°07'7 6.8
2014-Sep-23 14:33N 53°27' E 004°56'34 8.1
2014-Sep-23 10:21N 53°00' E 004°21'6 8.1
2014-Sep-23 09:33N 52°54' E 004°17'8 8.0
2014-Sep-23 08:33N 52°47' E 004°11'8 8.0
2014-Sep-23 07:33N 52°41' E 004°02'8 8.3
2014-Sep-23 06:32N 52°35' E 003°53'19 9.0
2014-Sep-23 04:26N 52°22' E 003°31'9 9.7
2014-Sep-23 03:31N 52°15' E 003°21'1110.2
2014-Sep-23 02:25N 52°07' E 003°08'3210.2
2014-Sep-22 23:17N 51°43' E 002°34'7 9.2
2014-Sep-22 22:33N 51°38' E 002°27'10 8.6
2014-Sep-22 21:22N 51°31' E 002°17'6 7.6
2014-Sep-22 20:34N 51°26' E 002°10'7 7.0
2014-Sep-22 19:32N 51°19' E 002°06'7 6.7
2014-Sep-22 18:33N 51°13' E 002°02'7 7.0
2014-Sep-22 17:33N 51°09' E 001°52'7 7.1
2014-Sep-22 16:34N 51°05' E 001°44'7 7.3
2014-Sep-22 15:33N 50°59' E 001°36'36 8.8
2014-Sep-22 11:28N 50°31' E 001°01'9 9.3
2014-Sep-22 10:33N 50°27' E 000°50'10 9.5
2014-Sep-22 09:33N 50°24' E 000°35'1110.1
2014-Sep-22 08:31N 50°22' E 000°19'  
Track history (hours):
 
Tides and Currents Weather Stations Pressure Air Temp Water Temp Dewpoint Dewpoint Depression Visibility Wind Speed Wind Dir Waves Ship Positions

Wilson Algeciras

Last reported at 2014-Oct-01 21:08 UTC. Time now 2014-Oct-02 08:31 UTC.
Position N 53°24' E 004°35'.

Length 88 m; draft 5.2 m.

Type: Cargo ship. MMSI: 248689000.

Date/timePositionNaut miles runAvg speedWind from/ knotsBaromVisibWave heightAir tempDewpointWater temp
2014-Oct-01 21:08N 53°24' E 004°35'6 7.9
2014-Oct-01 20:22N 53°29' E 004°42'7 8.9
2014-Oct-01 19:33N 53°32' E 004°53'10 9.8
2014-Oct-01 18:33N 53°35' E 005°08'1010.2
2014-Oct-01 17:33N 53°38' E 005°24'1010.1
2014-Oct-01 16:33N 53°42' E 005°40'10 9.6
2014-Oct-01 15:32N 53°45' E 005°56'61 8.7
2014-Oct-01 08:33N 54°01' E 007°36'1010.1
2014-Oct-01 07:33N 54°02' E 007°53'9 8.6
2014-Oct-01 06:33N 54°01' E 008°08'1111.3
2014-Oct-01 05:34N 53°59' E 008°27'9 9.4
2014-Oct-01 04:34N 53°55' E 008°41'7 7.3
2014-Oct-01 03:33N 53°50' E 008°51'7 7.0
2014-Oct-01 02:33N 53°52' E 009°02'4 4.1
2014-Oct-01 01:33N 53°54' E 009°09'2 1.6
2014-Oct-01 00:33N 53°55' E 009°11'0 0.1
2014-Sep-30 23:25N 53°55' E 009°11'1 0.8
2014-Sep-30 22:33N 53°55' E 009°12'8 7.9
2014-Sep-30 21:30N 54°03' E 009°18'9 6.9
2014-Sep-30 20:09N 54°11' E 009°27'5 8.0
2014-Sep-30 19:34N 54°12' E 009°34'8 7.6
2014-Sep-30 18:33N 54°18' E 009°43'3 2.6
2014-Sep-30 17:33N 54°21' E 009°45'7 6.6
2014-Sep-30 16:34N 54°20' E 009°56'5 5.0
2014-Sep-30 15:33N 54°22' E 010°05'2 2.4
2014-Sep-30 14:33N 54°22' E 010°09'6 6.5
2014-Sep-30 13:34N 54°27' E 010°15'9 8.8
2014-Sep-30 12:33N 54°33' E 010°27'9 9.4
2014-Sep-30 11:33N 54°37' E 010°41'87 6.5
2014-Sep-29 22:11N 55°55' E 011°50'5 8.5
2014-Sep-29 21:34N 55°57' E 011°59'1 1.3
2014-Sep-29 20:32N 55°58' E 012°01'0 0.0
2014-Sep-29 19:32N 55°58' E 012°01'0 0.0
2014-Sep-29 18:05N 55°58' E 012°01'0 0.0
2014-Sep-29 17:29N 55°58' E 012°01'0 0.0
2014-Sep-29 16:32N 55°58' E 012°01'0 0.0
2014-Sep-29 15:32N 55°58' E 012°01'0 0.0
2014-Sep-29 14:32N 55°58' E 012°01'0 0.0
2014-Sep-29 13:26N 55°58' E 012°01'0 0.0
2014-Sep-29 12:29N 55°58' E 012°01'0 0.0
2014-Sep-29 11:29N 55°58' E 012°01'0 0.0
2014-Sep-29 10:17N 55°58' E 012°01'0 0.0
2014-Sep-29 09:32N 55°58' E 012°01'0 0.0
2014-Sep-29 08:32N 55°58' E 012°01'0 0.0
2014-Sep-29 07:32N 55°58' E 012°01'0 0.0
2014-Sep-29 06:32N 55°58' E 012°01'0 0.0
2014-Sep-29 05:26N 55°58' E 012°01'0 0.0
2014-Sep-29 04:26N 55°58' E 012°01'0 0.0
2014-Sep-29 03:29N 55°58' E 012°01'0 0.0
2014-Sep-29 02:29N 55°58' E 012°01'0 0.0
2014-Sep-29 01:29N 55°58' E 012°01'0 0.0
2014-Sep-29 00:32N 55°58' E 012°01'0 0.0
2014-Sep-28 23:32N 55°58' E 012°01'0 0.0
2014-Sep-28 22:32N 55°58' E 012°01'0 0.0
2014-Sep-28 21:29N 55°58' E 012°01'0 0.0
2014-Sep-28 20:29N 55°58' E 012°01'0 0.0
2014-Sep-28 19:32N 55°58' E 012°01'0 0.0
2014-Sep-28 18:32N 55°58' E 012°01'0 0.0
2014-Sep-28 17:32N 55°58' E 012°01'0 0.0
2014-Sep-28 16:29N 55°58' E 012°01'0 0.0
2014-Sep-28 15:29N 55°58' E 012°01'0 0.0
2014-Sep-28 14:29N 55°58' E 012°01'0 0.0
2014-Sep-28 13:29N 55°58' E 012°01'0 0.0
2014-Sep-28 12:29N 55°58' E 012°01'0 0.0
2014-Sep-28 11:23N 55°58' E 012°01'0 0.0
2014-Sep-28 10:29N 55°58' E 012°01'0 0.0
2014-Sep-28 09:26N 55°58' E 012°01'0 0.0
2014-Sep-28 08:26N 55°58' E 012°01'0 0.0
2014-Sep-28 07:32N 55°58' E 012°01'0 0.0
2014-Sep-28 06:23N 55°58' E 012°01'0 0.0
2014-Sep-28 05:32N 55°58' E 012°01'0 0.0
2014-Sep-28 04:32N 55°58' E 012°01'0 0.0
2014-Sep-28 03:26N 55°58' E 012°01'0 0.0
2014-Sep-28 02:20N 55°58' E 012°01'0 0.0
2014-Sep-27 23:08N 55°58' E 012°01'0 0.0
2014-Sep-27 22:26N 55°58' E 012°01'0 0.0
2014-Sep-27 19:20N 55°58' E 012°01'0 0.0
2014-Sep-27 18:32N 55°58' E 012°01'0 0.0
2014-Sep-27 16:29N 55°58' E 012°01'0 0.0
2014-Sep-27 15:23N 55°58' E 012°01'0 0.0
2014-Sep-27 14:32N 55°58' E 012°01'0 0.0
2014-Sep-27 12:23N 55°58' E 012°01'0 0.0
2014-Sep-27 11:23N 55°58' E 012°01'0 0.0
2014-Sep-27 10:29N 55°58' E 012°01'0 0.0
2014-Sep-27 09:29N 55°58' E 012°01'0 0.0
2014-Sep-27 08:29N 55°58' E 012°01'0 0.0
2014-Sep-27 07:29N 55°58' E 012°01'0 0.0
2014-Sep-27 06:32N 55°58' E 012°01'0 0.0
2014-Sep-27 05:32N 55°58' E 012°01'0 0.0
2014-Sep-27 04:32N 55°58' E 012°01'0 0.0
2014-Sep-27 03:26N 55°58' E 012°01'0 0.0
2014-Sep-27 02:29N 55°58' E 012°01'0 0.0
2014-Sep-27 01:29N 55°58' E 012°01'0 0.0
2014-Sep-27 00:32N 55°58' E 012°01'4 4.6
2014-Sep-26 23:33N 55°56' E 011°53'6 5.7
2014-Sep-26 22:33N 56°01' E 011°49'91 1.8
2014-Sep-24 19:23N 54°37' E 010°46'8 9.7
2014-Sep-24 18:33N 54°33' E 010°34'10 9.7
2014-Sep-24 17:33N 54°29' E 010°19'7 6.9
2014-Sep-24 16:33N 54°24' E 010°12'3 3.1
2014-Sep-24 15:33N 54°22' E 010°07'8 7.9
2014-Sep-24 14:33N 54°21' E 009°54'8 7.4
2014-Sep-24 13:31N 54°18' E 009°42'29 7.1
2014-Sep-24 09:23N 53°55' E 009°11'3 3.8
2014-Sep-24 08:31N 53°53' E 009°06'5 5.3
2014-Sep-24 07:33N 53°51' E 008°58'7 6.6
2014-Sep-24 06:34N 53°50' E 008°47'6 6.3
2014-Sep-24 05:33N 53°55' E 008°40'7 6.6
2014-Sep-24 04:33N 53°58' E 008°30'7 7.4
2014-Sep-24 03:33N 53°60' E 008°18'67 9.3
2014-Sep-23 20:22N 53°45' E 006°27'810.4
2014-Sep-23 19:33N 53°43' E 006°13'1010.4
2014-Sep-23 18:33N 53°40' E 005°57'1010.4
2014-Sep-23 17:33N 53°36' E 005°40'1010.4
2014-Sep-23 16:34N 53°33' E 005°23'1010.3
2014-Sep-23 15:33N 53°30' E 005°07'7 6.8
2014-Sep-23 14:33N 53°27' E 004°56'34 8.1
2014-Sep-23 10:21N 53°00' E 004°21'6 8.1
2014-Sep-23 09:33N 52°54' E 004°17'8 8.0
2014-Sep-23 08:33N 52°47' E 004°11'8 8.0
2014-Sep-23 07:33N 52°41' E 004°02'8 8.3
2014-Sep-23 06:32N 52°35' E 003°53'19 9.0
2014-Sep-23 04:26N 52°22' E 003°31'9 9.7
2014-Sep-23 03:31N 52°15' E 003°21'1110.2
2014-Sep-23 02:25N 52°07' E 003°08'3210.2
2014-Sep-22 23:17N 51°43' E 002°34'7 9.2
2014-Sep-22 22:33N 51°38' E 002°27'10 8.6
2014-Sep-22 21:22N 51°31' E 002°17'6 7.6
2014-Sep-22 20:34N 51°26' E 002°10'7 7.0
2014-Sep-22 19:32N 51°19' E 002°06'7 6.7
2014-Sep-22 18:33N 51°13' E 002°02'7 7.0
2014-Sep-22 17:33N 51°09' E 001°52'7 7.1
2014-Sep-22 16:34N 51°05' E 001°44'7 7.3
2014-Sep-22 15:33N 50°59' E 001°36'36 8.8
2014-Sep-22 11:28N 50°31' E 001°01'9 9.3
2014-Sep-22 10:33N 50°27' E 000°50'10 9.5
2014-Sep-22 09:33N 50°24' E 000°35'1110.1
2014-Sep-22 08:31N 50°22' E 000°19'  

Dump ship's entire track history